sensor_id;sensor_type;location;lat;lon;timestamp;pressure;altitude;pressure_sealevel;temperature;humidity
76853;BME280;65825;52.232;10.566;2023-03-14T00:02:18;98260.06;;;10.66;80.73
76853;BME280;65825;52.232;10.566;2023-03-14T00:04:44;98275.47;;;10.72;80.48
76853;BME280;65825;52.232;10.566;2023-03-14T00:07:10;98271.31;;;10.80;80.63
76853;BME280;65825;52.232;10.566;2023-03-14T00:09:36;98257.34;;;10.91;81.56
76853;BME280;65825;52.232;10.566;2023-03-14T00:12:02;98249.66;;;10.88;80.50
76853;BME280;65825;52.232;10.566;2023-03-14T00:14:28;98233.31;;;10.83;80.71
76853;BME280;65825;52.232;10.566;2023-03-14T00:16:56;98228.75;;;10.85;80.82
76853;BME280;65825;52.232;10.566;2023-03-14T00:19:21;98218.94;;;10.87;80.68
76853;BME280;65825;52.232;10.566;2023-03-14T00:21:46;98210.06;;;10.88;80.67
76853;BME280;65825;52.232;10.566;2023-03-14T00:24:14;98223.16;;;10.89;80.36
76853;BME280;65825;52.232;10.566;2023-03-14T00:26:39;98228.75;;;10.85;81.21
76853;BME280;65825;52.232;10.566;2023-03-14T00:29:05;98226.88;;;10.87;80.40
76853;BME280;65825;52.232;10.566;2023-03-14T00:31:30;98207.44;;;10.88;81.21
76853;BME280;65825;52.232;10.566;2023-03-14T00:33:56;98190.63;;;10.89;80.53
76853;BME280;65825;52.232;10.566;2023-03-14T00:36:22;98209.53;;;10.95;79.91
76853;BME280;65825;52.232;10.566;2023-03-14T00:38:49;98217.44;;;10.95;80.20
76853;BME280;65825;52.232;10.566;2023-03-14T00:41:18;98233.91;;;10.99;79.48
76853;BME280;65825;52.232;10.566;2023-03-14T00:43:43;98227.56;;;11.01;79.05
76853;BME280;65825;52.232;10.566;2023-03-14T00:46:09;98231.25;;;10.99;79.90
76853;BME280;65825;52.232;10.566;2023-03-14T00:48:35;98224.72;;;11.04;79.25
76853;BME280;65825;52.232;10.566;2023-03-14T00:51:01;98237.16;;;11.02;79.28
76853;BME280;65825;52.232;10.566;2023-03-14T00:53:26;98221.94;;;11.06;78.74
76853;BME280;65825;52.232;10.566;2023-03-14T00:55:52;98234.53;;;11.02;78.58
76853;BME280;65825;52.232;10.566;2023-03-14T00:58:19;98236.09;;;11.05;79.06
76853;BME280;65825;52.232;10.566;2023-03-14T01:00:45;98228.94;;;11.07;78.30
76853;BME280;65825;52.232;10.566;2023-03-14T01:03:11;98243.91;;;11.06;78.80
76853;BME280;65825;52.232;10.566;2023-03-14T01:05:37;98250.47;;;11.01;78.64
76853;BME280;65825;52.232;10.566;2023-03-14T01:08:03;98246.03;;;11.01;78.51
76853;BME280;65825;52.232;10.566;2023-03-14T01:10:29;98246.66;;;11.05;78.09
76853;BME280;65825;52.232;10.566;2023-03-14T01:12:55;98241.53;;;11.14;78.15
76853;BME280;65825;52.232;10.566;2023-03-14T01:15:20;98239.84;;;11.13;77.85
76853;BME280;65825;52.232;10.566;2023-03-14T01:17:46;98229.66;;;11.09;77.89
76853;BME280;65825;52.232;10.566;2023-03-14T01:20:13;98230.25;;;11.12;77.86
76853;BME280;65825;52.232;10.566;2023-03-14T01:22:39;98215.72;;;11.07;77.29
76853;BME280;65825;52.232;10.566;2023-03-14T01:25:07;98214.97;;;11.05;77.63
76853;BME280;65825;52.232;10.566;2023-03-14T01:27:33;98207.81;;;11.07;77.33
76853;BME280;65825;52.232;10.566;2023-03-14T01:29:58;98214.00;;;11.06;77.14
76853;BME280;65825;52.232;10.566;2023-03-14T01:32:24;98222.91;;;11.05;77.75
76853;BME280;65825;52.232;10.566;2023-03-14T01:34:49;98227.66;;;11.00;77.13
76853;BME280;65825;52.232;10.566;2023-03-14T01:37:14;98214.00;;;11.06;76.65
76853;BME280;65825;52.232;10.566;2023-03-14T01:39:39;98197.00;;;11.10;76.37
76853;BME280;65825;52.232;10.566;2023-03-14T01:42:05;98192.88;;;11.06;75.95
76853;BME280;65825;52.232;10.566;2023-03-14T01:47:17;98178.34;;;11.00;76.19
76853;BME280;65825;52.232;10.566;2023-03-14T01:49:45;98176.16;;;10.94;76.01
76853;BME280;65825;52.232;10.566;2023-03-14T01:52:15;98197.56;;;11.02;74.72
76853;BME280;65825;52.232;10.566;2023-03-14T01:54:44;98201.25;;;11.00;74.51
76853;BME280;65825;52.232;10.566;2023-03-14T01:57:21;98190.81;;;10.98;74.86
76853;BME280;65825;52.232;10.566;2023-03-14T01:59:59;98181.81;;;11.01;74.51
76853;BME280;65825;52.232;10.566;2023-03-14T02:02:26;98166.94;;;11.00;73.28
76853;BME280;65825;52.232;10.566;2023-03-14T02:04:54;98165.97;;;11.01;73.32
76853;BME280;65825;52.232;10.566;2023-03-14T02:07:29;98168.25;;;10.94;74.01
76853;BME280;65825;52.232;10.566;2023-03-14T02:09:57;98171.59;;;10.96;72.65
76853;BME280;65825;52.232;10.566;2023-03-14T02:12:24;98160.44;;;10.93;73.11
76853;BME280;65825;52.232;10.566;2023-03-14T02:14:49;98152.72;;;10.90;72.58
76853;BME280;65825;52.232;10.566;2023-03-14T02:17:17;98152.53;;;10.93;72.85
76853;BME280;65825;52.232;10.566;2023-03-14T02:22:50;98141.63;;;10.97;72.43
76853;BME280;65825;52.232;10.566;2023-03-14T02:25:38;98146.72;;;10.88;73.23
76853;BME280;65825;52.232;10.566;2023-03-14T02:28:05;98153.25;;;10.95;72.53
76853;BME280;65825;52.232;10.566;2023-03-14T02:30:31;98154.81;;;10.97;72.25
76853;BME280;65825;52.232;10.566;2023-03-14T02:32:59;98157.91;;;10.91;71.93
76853;BME280;65825;52.232;10.566;2023-03-14T02:35:28;98174.53;;;10.81;72.47
76853;BME280;65825;52.232;10.566;2023-03-14T02:38:00;98170.41;;;10.77;72.13
76853;BME280;65825;52.232;10.566;2023-03-14T02:40:28;98175.28;;;10.70;73.12
76853;BME280;65825;52.232;10.566;2023-03-14T02:42:53;98180.97;;;10.77;72.54
76853;BME280;65825;52.232;10.566;2023-03-14T02:47:58;98166.47;;;10.82;72.05
76853;BME280;65825;52.232;10.566;2023-03-14T02:50:29;98170.19;;;10.80;71.74
76853;BME280;65825;52.232;10.566;2023-03-14T02:52:55;98170.53;;;10.75;72.12
76853;BME280;65825;52.232;10.566;2023-03-14T02:55:22;98164.63;;;10.72;72.09
76853;BME280;65825;52.232;10.566;2023-03-14T02:57:47;98157.69;;;10.71;72.25
76853;BME280;65825;52.232;10.566;2023-03-14T03:00:13;98165.19;;;10.64;72.75
76853;BME280;65825;52.232;10.566;2023-03-14T03:02:38;98154.38;;;10.67;72.47
76853;BME280;65825;52.232;10.566;2023-03-14T03:05:04;98142.41;;;10.63;72.05
76853;BME280;65825;52.232;10.566;2023-03-14T03:07:29;98143.56;;;10.59;72.61
76853;BME280;65825;52.232;10.566;2023-03-14T03:09:55;98133.09;;;10.58;72.31
76853;BME280;65825;52.232;10.566;2023-03-14T03:12:20;98135.03;;;10.56;72.47
76853;BME280;65825;52.232;10.566;2023-03-14T03:14:45;98122.66;;;10.56;72.41
76853;BME280;65825;52.232;10.566;2023-03-14T03:17:10;98111.16;;;10.57;72.21
76853;BME280;65825;52.232;10.566;2023-03-14T03:19:36;98122.34;;;10.61;71.77
76853;BME280;65825;52.232;10.566;2023-03-14T03:22:01;98106.63;;;10.59;71.97
76853;BME280;65825;52.232;10.566;2023-03-14T03:24:27;98100.13;;;10.52;72.21
76853;BME280;65825;52.232;10.566;2023-03-14T03:26:52;98109.81;;;10.52;72.50
76853;BME280;65825;52.232;10.566;2023-03-14T03:29:18;98106.13;;;10.54;72.16
76853;BME280;65825;52.232;10.566;2023-03-14T03:31:43;98114.03;;;10.54;72.01
76853;BME280;65825;52.232;10.566;2023-03-14T03:34:11;98109.19;;;10.48;72.08
76853;BME280;65825;52.232;10.566;2023-03-14T03:36:37;98099.47;;;10.49;72.38
76853;BME280;65825;52.232;10.566;2023-03-14T03:39:03;98099.72;;;10.46;72.21
76853;BME280;65825;52.232;10.566;2023-03-14T03:41:29;98107.63;;;10.46;72.14
76853;BME280;65825;52.232;10.566;2023-03-14T03:43:54;98122.38;;;10.48;71.77
76853;BME280;65825;52.232;10.566;2023-03-14T03:46:20;98082.06;;;10.46;71.98
76853;BME280;65825;52.232;10.566;2023-03-14T03:48:45;98082.00;;;10.35;72.45
76853;BME280;65825;52.232;10.566;2023-03-14T03:51:15;98075.66;;;10.38;72.73
76853;BME280;65825;52.232;10.566;2023-03-14T03:53:41;98072.53;;;10.33;73.05
76853;BME280;65825;52.232;10.566;2023-03-14T03:56:07;98095.44;;;10.32;73.32
76853;BME280;65825;52.232;10.566;2023-03-14T03:58:32;98080.13;;;10.37;73.20
76853;BME280;65825;52.232;10.566;2023-03-14T04:00:58;98089.09;;;10.35;73.20
76853;BME280;65825;52.232;10.566;2023-03-14T04:03:23;98093.50;;;10.34;73.14
76853;BME280;65825;52.232;10.566;2023-03-14T04:06:08;98078.53;;;10.35;73.32
76853;BME280;65825;52.232;10.566;2023-03-14T04:08:33;98078.31;;;10.38;72.92
76853;BME280;65825;52.232;10.566;2023-03-14T04:11:00;98072.22;;;10.37;73.40
76853;BME280;65825;52.232;10.566;2023-03-14T04:13:27;98071.75;;;10.43;72.84
76853;BME280;65825;52.232;10.566;2023-03-14T04:15:53;98074.91;;;10.48;72.71
76853;BME280;65825;52.232;10.566;2023-03-14T04:18:18;98082.81;;;10.48;72.92
76853;BME280;65825;52.232;10.566;2023-03-14T04:20:44;98081.00;;;10.49;72.61
76853;BME280;65825;52.232;10.566;2023-03-14T04:23:10;98092.06;;;10.54;72.67
76853;BME280;65825;52.232;10.566;2023-03-14T04:25:35;98100.94;;;10.53;72.74
76853;BME280;65825;52.232;10.566;2023-03-14T04:28:01;98081.47;;;10.43;72.70
76853;BME280;65825;52.232;10.566;2023-03-14T04:30:26;98076.41;;;10.40;72.93
76853;BME280;65825;52.232;10.566;2023-03-14T04:32:51;98069.06;;;10.32;73.08
76853;BME280;65825;52.232;10.566;2023-03-14T04:35:17;98099.56;;;10.24;73.54
76853;BME280;65825;52.232;10.566;2023-03-14T04:37:42;98086.88;;;10.29;72.96
76853;BME280;65825;52.232;10.566;2023-03-14T04:40:09;98093.84;;;10.30;72.81
76853;BME280;65825;52.232;10.566;2023-03-14T04:42:34;98094.69;;;10.30;73.25
76853;BME280;65825;52.232;10.566;2023-03-14T04:45:00;98093.06;;;10.40;72.42
76853;BME280;65825;52.232;10.566;2023-03-14T04:47:25;98107.94;;;10.41;72.46
76853;BME280;65825;52.232;10.566;2023-03-14T04:49:51;98103.38;;;10.56;71.56
76853;BME280;65825;52.232;10.566;2023-03-14T04:52:16;98095.63;;;10.65;71.69
76853;BME280;65825;52.232;10.566;2023-03-14T04:54:42;98086.84;;;10.65;72.38
76853;BME280;65825;52.232;10.566;2023-03-14T04:57:07;98095.41;;;10.68;72.64
76853;BME280;65825;52.232;10.566;2023-03-14T04:59:32;98098.16;;;10.67;72.34
76853;BME280;65825;52.232;10.566;2023-03-14T05:01:57;98096.47;;;10.66;72.23
76853;BME280;65825;52.232;10.566;2023-03-14T05:04:23;98101.09;;;10.62;72.98
76853;BME280;65825;52.232;10.566;2023-03-14T05:06:48;98092.03;;;10.66;72.42
76853;BME280;65825;52.232;10.566;2023-03-14T05:09:13;98086.34;;;10.60;72.56
76853;BME280;65825;52.232;10.566;2023-03-14T05:11:40;98089.94;;;10.59;72.78
76853;BME280;65825;52.232;10.566;2023-03-14T05:14:05;98092.94;;;10.54;72.47
76853;BME280;65825;52.232;10.566;2023-03-14T05:16:30;98101.19;;;10.50;72.32
76853;BME280;65825;52.232;10.566;2023-03-14T05:18:56;98099.38;;;10.50;72.66
76853;BME280;65825;52.232;10.566;2023-03-14T05:21:21;98091.56;;;10.49;71.62
76853;BME280;65825;52.232;10.566;2023-03-14T05:23:46;98096.31;;;10.44;72.12
76853;BME280;65825;52.232;10.566;2023-03-14T05:26:11;98084.34;;;10.40;71.91
76853;BME280;65825;52.232;10.566;2023-03-14T05:28:37;98094.75;;;10.41;71.96
76853;BME280;65825;52.232;10.566;2023-03-14T05:31:06;98100.69;;;10.32;72.92
76853;BME280;65825;52.232;10.566;2023-03-14T05:33:31;98092.16;;;10.29;72.76
76853;BME280;65825;52.232;10.566;2023-03-14T05:35:56;98086.59;;;10.21;72.46
76853;BME280;65825;52.232;10.566;2023-03-14T05:38:22;98087.13;;;10.13;73.56
76853;BME280;65825;52.232;10.566;2023-03-14T05:40:47;98091.75;;;10.22;73.16
76853;BME280;65825;52.232;10.566;2023-03-14T05:43:12;98077.00;;;10.20;73.55
76853;BME280;65825;52.232;10.566;2023-03-14T05:45:38;98090.91;;;10.22;73.92
76853;BME280;65825;52.232;10.566;2023-03-14T05:48:04;98088.50;;;10.19;73.08
76853;BME280;65825;52.232;10.566;2023-03-14T05:50:29;98075.63;;;10.14;72.81
76853;BME280;65825;52.232;10.566;2023-03-14T05:52:54;98088.59;;;10.17;72.68
76853;BME280;65825;52.232;10.566;2023-03-14T05:55:20;98067.31;;;10.08;73.12
76853;BME280;65825;52.232;10.566;2023-03-14T05:57:45;98073.13;;;9.88;73.79
76853;BME280;65825;52.232;10.566;2023-03-14T06:00:10;98081.97;;;9.74;74.50
76853;BME280;65825;52.232;10.566;2023-03-14T06:02:36;98085.13;;;9.79;74.04
76853;BME280;65825;52.232;10.566;2023-03-14T06:05:01;98071.03;;;9.80;73.87
76853;BME280;65825;52.232;10.566;2023-03-14T06:07:26;98078.63;;;9.72;73.97
76853;BME280;65825;52.232;10.566;2023-03-14T06:09:52;98083.69;;;9.63;74.81
76853;BME280;65825;52.232;10.566;2023-03-14T06:12:17;98086.63;;;9.58;74.89
76853;BME280;65825;52.232;10.566;2023-03-14T06:14:42;98085.69;;;9.47;75.91
76853;BME280;65825;52.232;10.566;2023-03-14T06:17:07;98088.41;;;9.45;75.66
76853;BME280;65825;52.232;10.566;2023-03-14T06:19:33;98089.38;;;9.44;76.05
76853;BME280;65825;52.232;10.566;2023-03-14T06:21:58;98093.88;;;9.42;76.34
76853;BME280;65825;52.232;10.566;2023-03-14T06:24:23;98098.72;;;9.36;76.77
76853;BME280;65825;52.232;10.566;2023-03-14T06:26:48;98099.38;;;9.39;76.58
76853;BME280;65825;52.232;10.566;2023-03-14T06:29:14;98088.50;;;9.31;76.92
76853;BME280;65825;52.232;10.566;2023-03-14T06:31:39;98095.88;;;9.26;77.27
76853;BME280;65825;52.232;10.566;2023-03-14T06:34:05;98102.94;;;9.26;77.25
76853;BME280;65825;52.232;10.566;2023-03-14T06:36:30;98114.19;;;9.28;77.24
76853;BME280;65825;52.232;10.566;2023-03-14T06:38:55;98103.56;;;9.29;77.10
76853;BME280;65825;52.232;10.566;2023-03-14T06:41:20;98107.56;;;9.35;76.66
76853;BME280;65825;52.232;10.566;2023-03-14T06:43:48;98116.84;;;9.40;76.55
76853;BME280;65825;52.232;10.566;2023-03-14T06:46:14;98121.63;;;9.60;75.92
76853;BME280;65825;52.232;10.566;2023-03-14T06:48:40;98127.72;;;9.73;75.27
76853;BME280;65825;52.232;10.566;2023-03-14T06:51:05;98116.13;;;10.13;73.20
76853;BME280;65825;52.232;10.566;2023-03-14T06:53:31;98118.97;;;10.59;71.18
76853;BME280;65825;52.232;10.566;2023-03-14T06:55:56;98116.53;;;10.68;71.47
76853;BME280;65825;52.232;10.566;2023-03-14T06:58:22;98114.44;;;10.84;70.16
76853;BME280;65825;52.232;10.566;2023-03-14T07:00:47;98110.13;;;10.83;70.05
76853;BME280;65825;52.232;10.566;2023-03-14T07:03:13;98113.38;;;11.10;68.95
76853;BME280;65825;52.232;10.566;2023-03-14T07:05:39;98104.09;;;11.39;67.92
76853;BME280;65825;52.232;10.566;2023-03-14T07:08:06;98107.19;;;11.68;66.01
76853;BME280;65825;52.232;10.566;2023-03-14T07:10:31;98102.19;;;11.98;65.59
76853;BME280;65825;52.232;10.566;2023-03-14T07:12:56;98091.34;;;11.79;66.70
76853;BME280;65825;52.232;10.566;2023-03-14T07:15:22;98095.19;;;11.75;65.71
76853;BME280;65825;52.232;10.566;2023-03-14T07:17:47;98093.53;;;11.96;65.32
76853;BME280;65825;52.232;10.566;2023-03-14T07:20:13;98095.69;;;12.88;62.77
76853;BME280;65825;52.232;10.566;2023-03-14T07:22:39;98094.06;;;12.65;63.00
76853;BME280;65825;52.232;10.566;2023-03-14T07:25:05;98093.63;;;12.27;64.76
76853;BME280;65825;52.232;10.566;2023-03-14T07:27:30;98097.16;;;14.15;58.21
76853;BME280;65825;52.232;10.566;2023-03-14T07:29:55;98095.75;;;14.41;57.21
76853;BME280;65825;52.232;10.566;2023-03-14T07:32:21;98095.63;;;14.13;58.40
76853;BME280;65825;52.232;10.566;2023-03-14T07:34:46;98088.66;;;14.51;57.75
76853;BME280;65825;52.232;10.566;2023-03-14T07:37:11;98083.00;;;13.75;59.33
76853;BME280;65825;52.232;10.566;2023-03-14T07:39:36;98085.06;;;13.51;60.48
76853;BME280;65825;52.232;10.566;2023-03-14T07:42:02;98087.56;;;13.12;61.54
76853;BME280;65825;52.232;10.566;2023-03-14T07:44:27;98085.44;;;12.95;62.70
76853;BME280;65825;52.232;10.566;2023-03-14T07:46:53;98081.94;;;12.94;62.36
76853;BME280;65825;52.232;10.566;2023-03-14T07:49:18;98084.50;;;12.96;63.02
76853;BME280;65825;52.232;10.566;2023-03-14T07:51:44;98076.22;;;12.78;64.17
76853;BME280;65825;52.232;10.566;2023-03-14T07:54:12;98075.28;;;12.68;64.40
76853;BME280;65825;52.232;10.566;2023-03-14T07:56:37;98080.50;;;14.34;59.93
76853;BME280;65825;52.232;10.566;2023-03-14T07:59:02;98073.19;;;14.66;58.44
76853;BME280;65825;52.232;10.566;2023-03-14T08:01:28;98070.84;;;15.10;57.08
76853;BME280;65825;52.232;10.566;2023-03-14T08:03:53;98070.69;;;14.74;57.06
76853;BME280;65825;52.232;10.566;2023-03-14T08:06:19;98070.78;;;14.53;57.06
76853;BME280;65825;52.232;10.566;2023-03-14T08:08:44;98075.50;;;17.45;50.41
76853;BME280;65825;52.232;10.566;2023-03-14T08:11:09;98062.84;;;17.47;49.51
76853;BME280;65825;52.232;10.566;2023-03-14T08:13:36;98061.09;;;18.06;47.14
76853;BME280;65825;52.232;10.566;2023-03-14T08:16:01;98063.53;;;17.66;47.64
76853;BME280;65825;52.232;10.566;2023-03-14T08:18:27;98065.72;;;16.66;50.07
76853;BME280;65825;52.232;10.566;2023-03-14T08:20:52;98064.13;;;17.60;48.27
76853;BME280;65825;52.232;10.566;2023-03-14T08:23:17;98050.31;;;19.95;42.58
76853;BME280;65825;52.232;10.566;2023-03-14T08:25:43;98056.31;;;18.18;45.05
76853;BME280;65825;52.232;10.566;2023-03-14T08:28:08;98056.88;;;17.53;47.06
76853;BME280;65825;52.232;10.566;2023-03-14T08:30:33;98060.94;;;16.42;49.36
76853;BME280;65825;52.232;10.566;2023-03-14T08:32:59;98044.81;;;16.07;50.42
76853;BME280;65825;52.232;10.566;2023-03-14T08:35:25;98052.81;;;19.08;44.86
76853;BME280;65825;52.232;10.566;2023-03-14T08:37:50;98060.72;;;19.34;44.13
76853;BME280;65825;52.232;10.566;2023-03-14T08:40:17;98061.91;;;17.73;46.82
76853;BME280;65825;52.232;10.566;2023-03-14T08:42:42;98054.94;;;16.31;49.81
76853;BME280;65825;52.232;10.566;2023-03-14T08:45:08;98055.66;;;16.23;50.23
76853;BME280;65825;52.232;10.566;2023-03-14T08:47:35;98067.22;;;15.40;52.07
76853;BME280;65825;52.232;10.566;2023-03-14T08:50:00;98051.25;;;14.83;54.18
76853;BME280;65825;52.232;10.566;2023-03-14T08:52:26;98068.31;;;14.01;56.42
76853;BME280;65825;52.232;10.566;2023-03-14T08:54:51;98066.13;;;13.56;58.67
76853;BME280;65825;52.232;10.566;2023-03-14T08:57:16;98059.97;;;13.55;58.79
76853;BME280;65825;52.232;10.566;2023-03-14T08:59:42;98063.72;;;13.53;58.40
76853;BME280;65825;52.232;10.566;2023-03-14T09:02:10;98071.53;;;13.34;59.62
76853;BME280;65825;52.232;10.566;2023-03-14T09:04:36;98077.47;;;14.18;58.27
76853;BME280;65825;52.232;10.566;2023-03-14T09:07:01;98060.13;;;14.14;57.72
76853;BME280;65825;52.232;10.566;2023-03-14T09:09:26;98057.69;;;14.22;58.22
76853;BME280;65825;52.232;10.566;2023-03-14T09:11:52;98041.09;;;14.29;57.39
76853;BME280;65825;52.232;10.566;2023-03-14T09:14:18;98057.16;;;13.98;58.67
76853;BME280;65825;52.232;10.566;2023-03-14T09:16:43;98051.69;;;14.29;58.21
76853;BME280;65825;52.232;10.566;2023-03-14T09:19:08;98064.41;;;15.51;54.90
76853;BME280;65825;52.232;10.566;2023-03-14T09:21:34;98049.09;;;16.54;52.09
76853;BME280;65825;52.232;10.566;2023-03-14T09:23:59;98059.81;;;17.07;50.72
76853;BME280;65825;52.232;10.566;2023-03-14T09:26:25;98055.81;;;17.63;49.61
76853;BME280;65825;52.232;10.566;2023-03-14T09:28:50;98057.88;;;17.34;49.20
76853;BME280;65825;52.232;10.566;2023-03-14T09:31:15;98069.56;;;16.17;52.21
76853;BME280;65825;52.232;10.566;2023-03-14T09:33:41;98092.13;;;15.29;54.52
76853;BME280;65825;52.232;10.566;2023-03-14T09:36:06;98081.44;;;14.91;55.06
76853;BME280;65825;52.232;10.566;2023-03-14T09:38:33;98079.72;;;14.52;56.66
76853;BME280;65825;52.232;10.566;2023-03-14T09:41:00;98065.31;;;14.45;56.89
76853;BME280;65825;52.232;10.566;2023-03-14T09:43:29;98081.88;;;14.96;55.25
76853;BME280;65825;52.232;10.566;2023-03-14T09:45:58;98068.34;;;15.37;54.80
76853;BME280;65825;52.232;10.566;2023-03-14T09:48:28;98078.81;;;15.48;53.77
76853;BME280;65825;52.232;10.566;2023-03-14T09:50:56;98072.19;;;18.19;47.28
76853;BME280;65825;52.232;10.566;2023-03-14T09:53:46;98066.66;;;16.92;49.63
76853;BME280;65825;52.232;10.566;2023-03-14T09:56:16;98077.56;;;17.51;48.55
76853;BME280;65825;52.232;10.566;2023-03-14T09:58:45;98084.94;;;16.87;49.88
76853;BME280;65825;52.232;10.566;2023-03-14T10:01:15;98090.16;;;16.79;49.55
76853;BME280;65825;52.232;10.566;2023-03-14T10:03:42;98099.06;;;19.58;42.75
76853;BME280;65825;52.232;10.566;2023-03-14T10:06:14;98089.19;;;18.36;44.68
76853;BME280;65825;52.232;10.566;2023-03-14T10:08:42;98089.69;;;18.73;45.16
76853;BME280;65825;52.232;10.566;2023-03-14T10:11:14;98114.59;;;19.47;44.28
76853;BME280;65825;52.232;10.566;2023-03-14T10:13:47;98075.94;;;21.29;38.38
76853;BME280;65825;52.232;10.566;2023-03-14T10:16:13;98089.03;;;19.52;41.94
76853;BME280;65825;52.232;10.566;2023-03-14T10:18:44;98088.50;;;17.65;46.48
76853;BME280;65825;52.232;10.566;2023-03-14T10:21:29;98093.88;;;18.42;44.84
76853;BME280;65825;52.232;10.566;2023-03-14T10:24:16;98094.03;;;19.47;42.78
76853;BME280;65825;52.232;10.566;2023-03-14T10:26:42;98098.91;;;17.51;47.16
76853;BME280;65825;52.232;10.566;2023-03-14T10:29:11;98113.41;;;19.41;42.88
76853;BME280;65825;52.232;10.566;2023-03-14T10:32:04;98093.00;;;18.67;45.25
76853;BME280;65825;52.232;10.566;2023-03-14T10:34:35;98105.94;;;17.95;47.13
76853;BME280;65825;52.232;10.566;2023-03-14T10:37:07;98105.44;;;17.21;49.58
76853;BME280;65825;52.232;10.566;2023-03-14T10:39:47;98108.56;;;16.36;51.51
76853;BME280;65825;52.232;10.566;2023-03-14T10:42:19;98104.56;;;16.59;52.14
76853;BME280;65825;52.232;10.566;2023-03-14T10:44:49;98100.56;;;18.87;46.86
76853;BME280;65825;52.232;10.566;2023-03-14T10:47:22;98096.94;;;18.96;44.61
76853;BME280;65825;52.232;10.566;2023-03-14T10:49:48;98092.97;;;17.39;49.66
76853;BME280;65825;52.232;10.566;2023-03-14T10:54:38;98092.19;;;25.78;31.11
76853;BME280;65825;52.232;10.566;2023-03-14T10:57:04;98090.78;;;22.36;36.28
76853;BME280;65825;52.232;10.566;2023-03-14T10:59:36;98105.22;;;19.91;42.68
76853;BME280;65825;52.232;10.566;2023-03-14T11:02:04;98114.47;;;21.36;40.34
76853;BME280;65825;52.232;10.566;2023-03-14T11:24:36;98111.34;;;15.98;52.82
76853;BME280;65825;52.232;10.566;2023-03-14T11:32:37;98116.31;;;15.17;55.14
76853;BME280;65825;52.232;10.566;2023-03-14T11:35:14;98106.84;;;14.56;58.42
76853;BME280;65825;52.232;10.566;2023-03-14T11:37:46;98112.13;;;15.05;58.85
76853;BME280;65825;52.232;10.566;2023-03-14T11:40:17;98103.97;;;15.82;57.16
76853;BME280;65825;52.232;10.566;2023-03-14T11:42:44;98103.16;;;15.72;56.80
76853;BME280;65825;52.232;10.566;2023-03-14T11:45:22;98087.78;;;15.28;57.01
76853;BME280;65825;52.232;10.566;2023-03-14T11:47:55;98100.22;;;15.66;56.03
76853;BME280;65825;52.232;10.566;2023-03-14T11:50:29;98084.53;;;16.82;52.43
76853;BME280;65825;52.232;10.566;2023-03-14T11:53:18;98068.66;;;16.63;52.75
76853;BME280;65825;52.232;10.566;2023-03-14T11:55:44;98076.03;;;15.50;55.30
76853;BME280;65825;52.232;10.566;2023-03-14T11:58:33;98076.16;;;15.01;56.51
76853;BME280;65825;52.232;10.566;2023-03-14T12:01:03;98082.81;;;14.67;58.42
76853;BME280;65825;52.232;10.566;2023-03-14T12:03:58;98091.69;;;14.17;62.46
76853;BME280;65825;52.232;10.566;2023-03-14T12:06:28;98093.38;;;13.67;65.96
76853;BME280;65825;52.232;10.566;2023-03-14T12:09:04;98089.00;;;13.16;68.98
76853;BME280;65825;52.232;10.566;2023-03-14T12:11:34;98091.75;;;13.14;69.36
76853;BME280;65825;52.232;10.566;2023-03-14T12:14:02;98103.66;;;12.77;71.61
76853;BME280;65825;52.232;10.566;2023-03-14T12:16:34;98107.13;;;12.89;71.41
76853;BME280;65825;52.232;10.566;2023-03-14T12:21:48;98101.22;;;13.28;70.69
76853;BME280;65825;52.232;10.566;2023-03-14T12:24:21;98118.31;;;12.92;73.09
76853;BME280;65825;52.232;10.566;2023-03-14T12:27:00;98184.91;;;12.22;73.76
76853;BME280;65825;52.232;10.566;2023-03-14T12:29:26;98187.28;;;11.34;70.24
76853;BME280;65825;52.232;10.566;2023-03-14T12:34:34;98232.28;;;9.73;75.75
76853;BME280;65825;52.232;10.566;2023-03-14T12:37:44;98247.31;;;9.71;75.36
76853;BME280;65825;52.232;10.566;2023-03-14T12:47:57;98297.38;;;9.18;77.03
76853;BME280;65825;52.232;10.566;2023-03-14T12:50:33;98320.13;;;9.05;77.76
76853;BME280;65825;52.232;10.566;2023-03-14T12:56:06;98328.06;;;8.91;77.14
76853;BME280;65825;52.232;10.566;2023-03-14T13:01:33;98368.44;;;8.62;77.70
76853;BME280;65825;52.232;10.566;2023-03-14T13:04:07;98379.75;;;8.34;76.79
76853;BME280;65825;52.232;10.566;2023-03-14T13:06:52;98416.59;;;8.19;77.19
76853;BME280;65825;52.232;10.566;2023-03-14T13:11:55;98439.69;;;7.52;76.38
76853;BME280;65825;52.232;10.566;2023-03-14T13:14:22;98454.59;;;7.51;76.70
76853;BME280;65825;52.232;10.566;2023-03-14T13:16:48;98466.22;;;7.47;77.20
76853;BME280;65825;52.232;10.566;2023-03-14T13:19:22;98473.50;;;7.58;75.09
76853;BME280;65825;52.232;10.566;2023-03-14T13:21:50;98478.81;;;7.56;75.56
76853;BME280;65825;52.232;10.566;2023-03-14T13:24:26;98506.81;;;7.25;74.78
76853;BME280;65825;52.232;10.566;2023-03-14T13:26:54;98499.38;;;7.33;73.73
76853;BME280;65825;52.232;10.566;2023-03-14T13:29:22;98516.00;;;7.16;74.57
76853;BME280;65825;52.232;10.566;2023-03-14T13:31:53;98553.97;;;7.09;75.75
76853;BME280;65825;52.232;10.566;2023-03-14T13:34:19;98560.25;;;6.90;75.77
76853;BME280;65825;52.232;10.566;2023-03-14T13:36:45;98564.09;;;6.83;75.97
76853;BME280;65825;52.232;10.566;2023-03-14T13:39:13;98566.63;;;6.67;77.98
76853;BME280;65825;52.232;10.566;2023-03-14T13:41:40;98580.97;;;6.77;76.27
76853;BME280;65825;52.232;10.566;2023-03-14T13:44:10;98590.78;;;6.91;74.71
76853;BME280;65825;52.232;10.566;2023-03-14T13:46:38;98615.69;;;6.82;73.30
76853;BME280;65825;52.232;10.566;2023-03-14T13:49:19;98627.69;;;6.34;74.55
76853;BME280;65825;52.232;10.566;2023-03-14T13:51:46;98650.88;;;6.06;77.37
76853;BME280;65825;52.232;10.566;2023-03-14T13:54:17;98653.53;;;5.86;75.84